createdAt,value
2022-08-17T00:00:43.547Z,18.54
2022-08-17T00:03:10.546Z,18.85
2022-08-17T00:05:41.659Z,18.48
2022-08-17T00:08:10.524Z,18.68
2022-08-17T00:10:39.671Z,18.81
2022-08-17T00:13:12.017Z,18.47
2022-08-17T00:15:39.984Z,18.53
2022-08-17T00:19:01.090Z,18.44
2022-08-17T00:20:58.464Z,18.50
2022-08-17T00:23:27.682Z,18.31
2022-08-17T00:25:56.056Z,18.40
2022-08-17T00:28:23.827Z,18.49
2022-08-17T00:30:53.806Z,18.43
2022-08-17T00:33:26.225Z,18.51
2022-08-17T00:35:54.913Z,18.42
2022-08-17T00:38:23.250Z,18.56
2022-08-17T00:40:55.975Z,18.47
2022-08-17T00:43:32.522Z,18.30
2022-08-17T00:46:03.442Z,18.47
2022-08-17T00:48:36.272Z,18.31
2022-08-17T00:51:08.496Z,18.47
2022-08-17T00:53:40.219Z,18.47
2022-08-17T00:56:13.981Z,18.40
2022-08-17T00:58:42.392Z,18.35
2022-08-17T01:01:11.315Z,18.24
2022-08-17T01:03:41.276Z,18.13
2022-08-17T01:06:11.592Z,18.13
2022-08-17T01:08:40.652Z,18.23
2022-08-17T01:11:09.250Z,18.27
2022-08-17T01:13:41.283Z,18.12
2022-08-17T01:16:18.988Z,18.10
2022-08-17T01:18:49.781Z,18.32
2022-08-17T01:21:24.274Z,18.33
2022-08-17T01:23:54.537Z,18.22
2022-08-17T01:26:23.193Z,18.08
2022-08-17T01:28:54.397Z,18.14
2022-08-17T01:31:25.854Z,18.25
2022-08-17T01:33:53.913Z,18.24
2022-08-17T01:36:22.020Z,18.25
2022-08-17T01:38:49.921Z,18.28
2022-08-17T01:41:20.443Z,18.33
2022-08-17T01:43:51.133Z,18.26
2022-08-17T01:46:23.139Z,18.19
2022-08-17T01:48:51.627Z,18.13
2022-08-17T01:51:21.137Z,18.18
2022-08-17T01:53:52.122Z,17.94
2022-08-17T01:56:23.099Z,18.06
2022-08-17T01:58:51.828Z,17.87
2022-08-17T02:01:21.491Z,17.89
2022-08-17T02:03:54.532Z,17.61
2022-08-17T02:06:31.365Z,17.68
2022-08-17T02:09:02.708Z,17.52
2022-08-17T02:11:34.869Z,17.36
2022-08-17T02:14:04.093Z,17.01
2022-08-17T02:16:37.906Z,17.36
2022-08-17T02:20:10.300Z,17.19
2022-08-17T02:22:40.010Z,17.12
2022-08-17T02:25:10.451Z,16.96
2022-08-17T02:27:41.821Z,16.97
2022-08-17T02:30:59.148Z,16.99
2022-08-17T02:33:04.026Z,16.91
2022-08-17T02:35:34.063Z,17.17
2022-08-17T02:38:02.107Z,17.41
2022-08-17T02:40:36.123Z,16.84
2022-08-17T02:43:06.190Z,17.30
2022-08-17T02:45:34.294Z,17.02
2022-08-17T02:48:02.182Z,17.03
2022-08-17T02:50:31.197Z,16.84
2022-08-17T02:53:02.286Z,16.62
2022-08-17T02:55:33.695Z,17.00
2022-08-17T02:58:01.793Z,17.51
2022-08-17T03:00:35.165Z,16.79
2022-08-17T03:03:05.833Z,16.79
2022-08-17T03:05:36.378Z,16.62
2022-08-17T03:08:07.412Z,16.84
2022-08-17T03:10:40.883Z,16.68
2022-08-17T03:13:09.366Z,16.58
2022-08-17T03:15:40.625Z,16.41
2022-08-17T03:18:09.340Z,16.51
2022-08-17T03:20:47.372Z,16.39
2022-08-17T03:23:15.893Z,16.70
2022-08-17T03:25:46.429Z,16.25
2022-08-17T03:28:14.275Z,16.40
2022-08-17T03:31:46.341Z,16.56
2022-08-17T03:34:16.393Z,16.38
2022-08-17T03:36:45.018Z,16.73
2022-08-17T03:39:13.135Z,16.31
2022-08-17T03:41:41.011Z,16.42
2022-08-17T03:44:08.723Z,16.39
2022-08-17T03:46:54.462Z,16.19
2022-08-17T03:49:41.457Z,16.42
2022-08-17T03:52:26.580Z,16.38
2022-08-17T03:55:12.140Z,16.30
2022-08-17T03:57:40.736Z,16.30
2022-08-17T04:00:09.303Z,16.29
2022-08-17T04:02:38.217Z,16.34
2022-08-17T04:05:08.030Z,16.01
2022-08-17T04:07:36.041Z,16.00
2022-08-17T04:10:05.317Z,15.97
2022-08-17T04:12:45.245Z,16.08
2022-08-17T04:15:14.039Z,16.00
2022-08-17T04:17:44.250Z,15.92
2022-08-17T04:20:15.121Z,16.04
2022-08-17T04:22:57.291Z,16.25
2022-08-17T04:25:25.529Z,16.42
2022-08-17T04:27:53.179Z,16.54
2022-08-17T04:30:22.732Z,16.33
2022-08-17T04:33:10.544Z,16.49
2022-08-17T04:35:41.707Z,16.60
2022-08-17T04:38:11.071Z,16.56
2022-08-17T04:40:57.428Z,16.59
2022-08-17T04:43:27.249Z,16.62
2022-08-17T04:45:57.818Z,16.64
2022-08-17T04:48:35.237Z,16.65
2022-08-17T04:51:10.298Z,16.77
2022-08-17T04:53:39.037Z,16.94
2022-08-17T04:56:11.830Z,17.04
2022-08-17T04:58:44.809Z,17.06
2022-08-17T05:01:12.921Z,17.14
2022-08-17T05:03:42.107Z,17.40
2022-08-17T05:06:14.722Z,17.25
2022-08-17T05:08:42.633Z,17.23
2022-08-17T05:11:12.107Z,17.37
2022-08-17T05:13:39.743Z,17.53
2022-08-17T05:16:08.966Z,17.59
2022-08-17T05:18:38.922Z,17.60
2022-08-17T05:21:08.424Z,17.74
2022-08-17T05:23:42.874Z,17.84
2022-08-17T05:26:25.831Z,17.93
2022-08-17T05:28:59.634Z,18.12
2022-08-17T05:31:29.377Z,18.21
2022-08-17T05:33:57.886Z,18.33
2022-08-17T05:36:42.368Z,18.55
2022-08-17T05:39:16.898Z,18.63
2022-08-17T05:41:47.963Z,18.92
2022-08-17T05:44:16.070Z,19.12
2022-08-17T05:46:48.618Z,19.42
2022-08-17T05:49:19.063Z,19.58
2022-08-17T05:52:02.660Z,19.87
2022-08-17T05:54:39.931Z,19.96
2022-08-17T05:57:18.066Z,20.21
2022-08-17T05:59:54.312Z,20.40
2022-08-17T06:02:26.538Z,20.59
2022-08-17T06:05:12.222Z,20.68
2022-08-17T06:07:48.026Z,20.82
2022-08-17T06:10:21.737Z,20.78
2022-08-17T06:12:57.737Z,20.84
2022-08-17T06:15:31.918Z,20.86
2022-08-17T06:18:02.173Z,20.72
2022-08-17T06:20:37.373Z,20.97
2022-08-17T06:23:08.127Z,20.93
2022-08-17T06:25:41.935Z,21.01
2022-08-17T06:28:14.205Z,20.95
2022-08-17T06:30:59.560Z,21.09
2022-08-17T06:33:34.551Z,21.01
2022-08-17T06:36:14.592Z,20.92
2022-08-17T06:38:50.873Z,21.04
2022-08-17T06:42:54.861Z,21.07
2022-08-17T06:45:15.890Z,21.07
2022-08-17T06:47:47.403Z,21.10
2022-08-17T06:50:20.829Z,21.14
2022-08-17T06:52:53.957Z,21.18
2022-08-17T06:55:27.469Z,21.46
2022-08-17T06:57:59.088Z,21.57
2022-08-17T07:00:33.493Z,21.72
2022-08-17T07:03:06.747Z,21.85
2022-08-17T07:05:38.732Z,21.97
2022-08-17T07:08:11.627Z,22.23
2022-08-17T07:10:43.042Z,22.34
2022-08-17T07:13:29.653Z,22.36
2022-08-17T07:16:07.761Z,22.51
2022-08-17T07:18:35.541Z,22.79
2022-08-17T07:21:17.565Z,23.05
2022-08-17T07:23:57.284Z,23.27
2022-08-17T07:26:25.769Z,23.53
2022-08-17T07:28:56.105Z,23.59
2022-08-17T07:31:27.299Z,23.62
2022-08-17T07:34:05.597Z,23.68
2022-08-17T07:36:34.811Z,24.07
2022-08-17T07:39:05.247Z,24.26
2022-08-17T07:41:57.490Z,24.31
2022-08-17T07:44:24.445Z,24.49
2022-08-17T07:47:12.528Z,24.61
2022-08-17T07:49:41.812Z,24.73
2022-08-17T07:52:47.873Z,24.82
2022-08-17T07:55:00.510Z,24.83
2022-08-17T07:57:35.434Z,24.97
2022-08-17T08:00:17.146Z,25.16
2022-08-17T08:03:01.617Z,25.35
2022-08-17T08:05:49.766Z,25.32
2022-08-17T08:08:23.986Z,25.70
2022-08-17T08:11:00.703Z,25.50
2022-08-17T08:13:30.409Z,25.83
2022-08-17T08:16:14.434Z,25.78
2022-08-17T08:18:55.517Z,25.41
2022-08-17T08:21:34.836Z,25.78
2022-08-17T08:24:16.753Z,25.78
2022-08-17T08:26:49.113Z,26.08
2022-08-17T08:29:23.281Z,25.90
2022-08-17T08:32:04.661Z,26.25
2022-08-17T08:35:00.538Z,26.51
2022-08-17T08:37:42.707Z,26.73
2022-08-17T08:40:25.107Z,26.65
2022-08-17T08:42:59.983Z,26.92
2022-08-17T08:45:33.461Z,26.91
2022-08-17T08:48:12.825Z,27.04
2022-08-17T08:51:05.834Z,27.25
2022-08-17T08:53:41.478Z,27.03
2022-08-17T08:56:12.739Z,27.15
2022-08-17T08:58:50.803Z,27.60
2022-08-17T09:01:22.814Z,27.43
2022-08-17T09:04:23.403Z,27.28
2022-08-17T09:07:03.837Z,28.01
2022-08-17T09:09:53.365Z,28.28
2022-08-17T09:12:31.619Z,28.08
2022-08-17T09:15:08.304Z,28.35
2022-08-17T09:17:45.119Z,28.44
2022-08-17T09:20:28.154Z,28.31
2022-08-17T09:23:06.527Z,28.52
2022-08-17T09:25:45.365Z,28.46
2022-08-17T09:28:19.261Z,28.62
2022-08-17T09:30:49.731Z,28.06
2022-08-17T09:33:22.857Z,28.46
2022-08-17T09:35:55.019Z,28.51
2022-08-17T09:38:32.641Z,28.97
2022-08-17T09:41:04.329Z,28.62
2022-08-17T09:43:39.238Z,28.62
2022-08-17T09:46:12.572Z,28.99
2022-08-17T09:48:43.673Z,28.55
2022-08-17T09:51:16.755Z,29.26
2022-08-17T09:53:45.903Z,29.28
2022-08-17T09:56:25.399Z,29.62
2022-08-17T09:59:38.598Z,28.93
2022-08-17T10:02:21.913Z,29.46
2022-08-17T10:04:55.557Z,29.94
2022-08-17T10:07:30.453Z,29.79
2022-08-17T10:10:05.259Z,30.12
2022-08-17T10:12:38.244Z,29.86
2022-08-17T10:15:14.991Z,30.19
2022-08-17T10:17:56.500Z,29.83
2022-08-17T10:20:27.750Z,28.93
2022-08-17T10:23:19.369Z,29.56
2022-08-17T10:26:08.703Z,29.81
2022-08-17T10:28:40.465Z,29.73
2022-08-17T10:31:33.673Z,28.77
2022-08-17T10:34:08.632Z,28.74
2022-08-17T10:36:46.140Z,28.55
2022-08-17T10:39:22.157Z,28.36
2022-08-17T10:41:55.692Z,28.44
2022-08-17T10:44:38.520Z,28.56
2022-08-17T10:47:11.835Z,28.47
2022-08-17T10:49:48.137Z,28.42
2022-08-17T10:52:48.507Z,28.51
2022-08-17T10:55:19.132Z,28.59
2022-08-17T10:57:50.383Z,28.75
2022-08-17T11:00:58.415Z,28.56
2022-08-17T11:03:27.040Z,28.97
2022-08-17T11:06:02.295Z,28.15
2022-08-17T11:09:01.567Z,28.20
2022-08-17T11:11:43.087Z,28.52
2022-08-17T11:14:26.251Z,28.43
2022-08-17T11:17:07.613Z,28.69
2022-08-17T11:19:47.238Z,29.05
2022-08-17T11:22:45.207Z,29.07
2022-08-17T11:25:15.935Z,29.20
2022-08-17T11:27:45.509Z,29.07
2022-08-17T11:30:17.421Z,29.21
2022-08-17T11:32:54.316Z,28.89
2022-08-17T11:35:31.472Z,29.14
2022-08-17T11:38:16.067Z,30.11
2022-08-17T11:41:04.227Z,30.20
2022-08-17T11:44:02.032Z,30.27
2022-08-17T11:46:59.187Z,30.10
2022-08-17T11:49:55.656Z,29.84
2022-08-17T11:52:41.704Z,30.31
2022-08-17T11:55:52.879Z,30.46
2022-08-17T11:58:38.595Z,30.11
2022-08-17T12:01:07.182Z,29.83
2022-08-17T12:03:54.451Z,29.70
2022-08-17T12:06:42.934Z,29.00
2022-08-17T12:09:15.843Z,28.59
2022-08-17T12:11:56.247Z,28.30
2022-08-17T12:15:08.135Z,28.24
2022-08-17T12:17:40.555Z,28.18
2022-08-17T12:20:15.230Z,27.79
2022-08-17T12:22:50.337Z,27.86
2022-08-17T12:25:22.653Z,27.75
2022-08-17T12:28:04.804Z,27.67
2022-08-17T12:30:33.882Z,28.10
2022-08-17T12:33:02.191Z,28.36
2022-08-17T12:35:35.354Z,28.57
2022-08-17T12:38:06.589Z,28.20
2022-08-17T12:40:55.612Z,28.18
2022-08-17T12:43:31.196Z,28.22
2022-08-17T12:46:01.161Z,28.69
2022-08-17T12:48:59.389Z,28.69
2022-08-17T12:51:30.325Z,29.00
2022-08-17T12:53:58.032Z,28.32
2022-08-17T12:56:26.171Z,27.96
2022-08-17T12:58:56.714Z,27.77
2022-08-17T13:01:25.129Z,27.42
2022-08-17T13:03:57.309Z,27.05
2022-08-17T13:06:32.341Z,27.29
2022-08-17T13:09:10.455Z,27.24
2022-08-17T13:11:48.747Z,27.32
2022-08-17T13:14:18.550Z,27.29
2022-08-17T13:16:51.618Z,28.66
2022-08-17T13:19:39.840Z,28.70
2022-08-17T13:22:12.445Z,28.73
2022-08-17T13:24:53.100Z,28.44
2022-08-17T13:27:23.331Z,27.96
2022-08-17T13:29:57.353Z,27.77
2022-08-17T13:32:36.127Z,27.55
2022-08-17T13:35:42.895Z,27.55
2022-08-17T13:38:15.901Z,27.56
2022-08-17T13:40:51.442Z,27.78
2022-08-17T13:43:43.885Z,27.68
2022-08-17T13:46:17.625Z,27.73
2022-08-17T13:48:45.471Z,28.15
2022-08-17T13:51:26.265Z,27.61
2022-08-17T13:54:07.085Z,27.87
2022-08-17T13:56:39.674Z,28.35
2022-08-17T13:59:11.264Z,28.65
2022-08-17T14:01:41.167Z,29.12
2022-08-17T14:04:11.186Z,29.89
2022-08-17T14:06:51.943Z,31.32
2022-08-17T14:09:26.641Z,32.87
2022-08-17T14:11:55.613Z,34.25
2022-08-17T14:14:24.096Z,33.70
2022-08-17T14:16:51.949Z,35.31
2022-08-17T14:19:21.802Z,36.10
2022-08-17T14:21:49.873Z,36.41
2022-08-17T14:24:24.266Z,36.52
2022-08-17T14:26:53.149Z,36.52
2022-08-17T14:29:21.204Z,34.28
2022-08-17T14:31:53.226Z,31.72
2022-08-17T14:34:22.605Z,36.27
2022-08-17T14:36:51.057Z,33.96
2022-08-17T14:39:20.103Z,35.83
2022-08-17T14:41:49.966Z,35.57
2022-08-17T14:44:17.785Z,34.44
2022-08-17T14:46:46.153Z,34.72
2022-08-17T14:49:15.601Z,35.84
2022-08-17T14:51:43.912Z,35.76
2022-08-17T14:54:33.632Z,34.96
2022-08-17T14:57:23.383Z,34.78
2022-08-17T14:59:54.797Z,35.83
2022-08-17T15:02:30.142Z,35.95
2022-08-17T15:06:02.942Z,36.78
2022-08-17T15:08:31.713Z,36.77
2022-08-17T15:10:59.523Z,35.83
2022-08-17T15:13:28.620Z,36.68
2022-08-17T15:15:56.691Z,35.97
2022-08-17T15:18:24.923Z,34.31
2022-08-17T15:20:52.912Z,34.15
2022-08-17T15:23:23.884Z,34.67
2022-08-17T15:25:53.633Z,36.21
2022-08-17T15:28:22.717Z,34.46
2022-08-17T15:30:52.597Z,33.70
2022-08-17T15:33:29.322Z,32.91
2022-08-17T15:35:59.628Z,30.08
2022-08-17T15:38:28.186Z,30.36
2022-08-17T15:40:57.630Z,28.14
2022-08-17T15:43:28.210Z,27.41
2022-08-17T15:46:01.067Z,27.83
2022-08-17T15:48:40.850Z,27.69
2022-08-17T15:51:13.826Z,26.70
2022-08-17T15:53:43.220Z,26.30
2022-08-17T15:56:11.578Z,26.30
2022-08-17T15:58:40.045Z,26.41
2022-08-17T16:01:15.128Z,26.02
2022-08-17T16:04:04.096Z,26.35
2022-08-17T16:06:34.653Z,26.60
2022-08-17T16:09:02.496Z,26.48
2022-08-17T16:11:31.318Z,26.25
2022-08-17T16:13:59.138Z,26.40
2022-08-17T16:16:31.453Z,27.88
2022-08-17T16:18:59.458Z,30.08
2022-08-17T16:21:29.663Z,30.68
2022-08-17T16:24:02.249Z,30.80
2022-08-17T16:26:31.372Z,32.10
2022-08-17T16:29:00.969Z,29.55
2022-08-17T16:31:30.221Z,29.33
2022-08-17T16:34:17.745Z,29.15
2022-08-17T16:36:53.608Z,28.42
2022-08-17T16:39:24.864Z,28.01
2022-08-17T16:41:52.664Z,26.88
2022-08-17T16:44:21.771Z,26.73
2022-08-17T16:46:51.389Z,26.84
2022-08-17T16:49:35.333Z,26.37
2022-08-17T16:52:10.362Z,26.04
2022-08-17T16:54:40.518Z,26.47
2022-08-17T16:57:08.241Z,25.91
2022-08-17T16:59:40.935Z,26.03
2022-08-17T17:02:15.526Z,25.90
2022-08-17T17:04:48.639Z,26.43
2022-08-17T17:07:34.739Z,26.28
2022-08-17T17:10:06.165Z,26.23
2022-08-17T17:13:00.923Z,26.15
2022-08-17T17:15:22.475Z,25.41
2022-08-17T17:17:53.558Z,25.41
2022-08-17T17:20:25.961Z,25.67
2022-08-17T17:23:05.637Z,25.65
2022-08-17T17:25:37.292Z,25.32
2022-08-17T17:28:10.035Z,25.66
2022-08-17T17:30:50.570Z,25.88
2022-08-17T17:33:22.559Z,25.63
2022-08-17T17:35:52.659Z,25.24
2022-08-17T17:38:23.278Z,24.94
2022-08-17T17:41:02.352Z,25.07
2022-08-17T17:43:39.752Z,24.93
2022-08-17T17:46:27.522Z,24.72
2022-08-17T17:48:59.289Z,24.77
2022-08-17T17:52:06.548Z,24.92
2022-08-17T17:54:32.517Z,24.68
2022-08-17T17:57:04.490Z,24.69
2022-08-17T17:59:43.761Z,24.40
2022-08-17T18:02:37.273Z,24.25
2022-08-17T18:05:11.982Z,24.06
2022-08-17T18:07:46.460Z,24.00
2022-08-17T18:10:29.297Z,23.87
2022-08-17T18:13:03.735Z,23.86
2022-08-17T18:15:36.063Z,23.88
2022-08-17T18:18:37.982Z,23.84
2022-08-17T18:21:16.895Z,23.95
2022-08-17T18:23:49.587Z,23.65
2022-08-17T18:26:37.467Z,23.58
2022-08-17T18:29:15.240Z,23.62
2022-08-17T18:31:42.903Z,23.57
2022-08-17T18:34:43.786Z,23.47
2022-08-17T18:37:16.025Z,23.46
2022-08-17T18:39:47.219Z,23.36
2022-08-17T18:42:25.697Z,23.36
2022-08-17T18:44:55.597Z,23.42
2022-08-17T18:47:25.873Z,23.38
2022-08-17T18:49:57.976Z,23.26
2022-08-17T18:52:29.028Z,23.26
2022-08-17T18:55:08.473Z,23.18
2022-08-17T18:57:38.313Z,23.22
2022-08-17T19:00:13.132Z,23.15
2022-08-17T19:02:51.473Z,23.12
2022-08-17T19:05:32.704Z,23.08
2022-08-17T19:10:59.154Z,23.07
2022-08-17T19:13:32.312Z,23.03
2022-08-17T19:16:10.132Z,23.03
2022-08-17T19:18:45.262Z,22.94
2022-08-17T19:21:16.312Z,22.92
2022-08-17T19:23:53.943Z,22.84
2022-08-17T19:26:54.799Z,22.83
2022-08-17T19:29:19.618Z,22.74
2022-08-17T19:31:50.117Z,22.74
2022-08-17T19:34:33.128Z,22.74
2022-08-17T19:37:06.752Z,22.61
2022-08-17T19:39:40.162Z,22.58
2022-08-17T19:42:13.576Z,22.46
2022-08-17T19:44:49.724Z,22.43
2022-08-17T19:47:50.946Z,22.30
2022-08-17T19:50:18.920Z,22.22
2022-08-17T19:52:52.875Z,22.14
2022-08-17T19:55:31.428Z,22.11
2022-08-17T19:58:17.794Z,21.93
2022-08-17T20:00:50.340Z,21.97
2022-08-17T20:03:23.116Z,21.93
2022-08-17T20:08:46.201Z,21.82
2022-08-17T20:11:18.390Z,21.75
2022-08-17T20:13:50.993Z,21.68
2022-08-17T20:16:19.596Z,21.32
2022-08-17T20:18:53.356Z,21.21
2022-08-17T20:21:25.797Z,21.10
2022-08-17T20:23:56.060Z,21.10
2022-08-17T20:26:27.500Z,21.15
2022-08-17T20:29:37.715Z,21.17
2022-08-17T20:32:16.328Z,21.24
2022-08-17T20:34:46.798Z,21.24
2022-08-17T20:37:27.877Z,21.19
2022-08-17T20:40:21.755Z,21.14
2022-08-17T20:42:49.645Z,21.11
2022-08-17T20:46:02.082Z,20.97
2022-08-17T20:48:39.148Z,20.91
2022-08-17T20:51:20.290Z,20.79
2022-08-17T20:54:06.855Z,20.73
2022-08-17T20:56:48.956Z,20.71
2022-08-17T20:59:50.144Z,20.67
2022-08-17T21:02:21.694Z,20.38
2022-08-17T21:05:06.966Z,20.45
2022-08-17T21:07:52.923Z,20.07
2022-08-17T21:10:31.930Z,20.39
2022-08-17T21:13:05.904Z,20.21
2022-08-17T21:15:40.395Z,20.34
2022-08-17T21:18:13.926Z,19.98
2022-08-17T21:21:01.456Z,19.53
2022-08-17T21:23:45.519Z,19.51
2022-08-17T21:26:28.113Z,19.70
2022-08-17T21:29:29.953Z,19.93
2022-08-17T21:32:19.066Z,19.63
2022-08-17T21:35:18.575Z,19.89
2022-08-17T21:37:49.119Z,19.88
2022-08-17T21:40:25.422Z,20.07
2022-08-17T21:42:55.681Z,20.11
2022-08-17T21:45:27.357Z,20.11
2022-08-17T21:48:09.516Z,20.10
2022-08-17T21:50:37.836Z,20.06
2022-08-17T21:53:09.078Z,19.97
2022-08-17T21:55:37.571Z,19.95
2022-08-17T21:58:14.569Z,19.86
2022-08-17T22:00:44.127Z,19.80
2022-08-17T22:03:24.720Z,19.80
2022-08-17T22:05:52.701Z,19.76
2022-08-17T22:08:24.140Z,19.78
2022-08-17T22:10:57.821Z,19.72
2022-08-17T22:13:29.445Z,19.64
2022-08-17T22:16:15.441Z,19.59
2022-08-17T22:18:58.267Z,19.58
2022-08-17T22:21:26.426Z,19.53
2022-08-17T22:24:07.125Z,19.42
2022-08-17T22:26:59.851Z,19.52
2022-08-17T22:29:53.128Z,19.57
2022-08-17T22:32:34.978Z,19.49
2022-08-17T22:35:28.431Z,19.44
2022-08-17T22:37:56.328Z,19.37
2022-08-17T22:40:31.521Z,19.28
2022-08-17T22:43:00.574Z,19.20
2022-08-17T22:45:29.728Z,19.19
2022-08-17T22:47:58.644Z,19.24
2022-08-17T22:50:29.361Z,19.06
2022-08-17T22:53:16.787Z,19.12
2022-08-17T22:56:10.539Z,19.10
2022-08-17T22:59:01.430Z,19.19
2022-08-17T23:01:32.592Z,19.11
2022-08-17T23:04:02.416Z,18.91
2022-08-17T23:06:32.416Z,18.95
2022-08-17T23:09:03.825Z,18.94
2022-08-17T23:11:50.066Z,19.06
2022-08-17T23:14:19.816Z,18.95
2022-08-17T23:16:47.788Z,18.77
2022-08-17T23:19:17.393Z,18.91
2022-08-17T23:21:46.163Z,18.70
2022-08-17T23:24:16.584Z,18.53
2022-08-17T23:26:46.647Z,18.80
2022-08-17T23:29:14.240Z,18.62
2022-08-17T23:31:43.157Z,18.51
2022-08-17T23:34:14.576Z,18.26
2022-08-17T23:36:52.958Z,18.20
2022-08-17T23:39:24.314Z,18.54
2022-08-17T23:41:54.037Z,18.15
2022-08-17T23:44:23.627Z,18.01
2022-08-17T23:46:52.123Z,18.01
2022-08-17T23:49:20.188Z,17.88
2022-08-17T23:51:49.201Z,17.91
2022-08-17T23:54:21.775Z,17.90
2022-08-17T23:56:49.551Z,17.83
2022-08-17T23:59:21.062Z,17.62
